Time;durP1;ratioP1;P1;durP2;ratioP2;P2;SDS_P1;SDS_P2;PMS_P1;PMS_P2;Temp;Humidity;BMP_temperature;BMP_pressure;BME280_temperature;BME280_humidity;BME280_pressure;Samples;Min_cycle;Max_cycle;Signal;HPM_P1;HPM_P2
2022/10/05 00:01:24;;;;;;;7.97;7.38;;;;;;;-141.48;100.00;69781.59;5227834;28;20126;-79
2022/10/05 00:04:09;;;;;;;8.68;7.95;;;;;;;-141.48;100.00;69781.59;5224931;28;20082;-79
2022/10/05 00:06:44;;;;;;;8.50;7.93;;;;;;;-141.48;100.00;69781.59;5210172;28;20510;-78
2022/10/05 00:09:18;;;;;;;10.57;9.60;;;;;;;-141.48;100.00;69781.59;5233364;28;20032;-78
2022/10/05 00:11:49;;;;;;;8.50;7.78;;;;;;;-141.48;100.00;69781.59;5216016;28;20047;-79
2022/10/05 00:14:28;;;;;;;9.55;8.23;;;;;;;-141.48;100.00;69781.59;5232091;28;20028;-79
2022/10/05 00:17:00;;;;;;;8.77;7.97;;;;;;;-141.48;100.00;69781.59;5233507;28;20055;-79
2022/10/05 00:19:36;;;;;;;7.15;6.63;;;;;;;-141.48;100.00;69781.59;5233316;28;20037;-81
2022/10/05 00:22:16;;;;;;;8.43;7.70;;;;;;;-141.48;100.00;69781.59;5230792;28;20035;-80
2022/10/05 00:24:49;;;;;;;12.23;10.05;;;;;;;-141.48;100.00;69781.59;5233093;28;20021;-80
2022/10/05 00:27:23;;;;;;;8.40;7.88;;;;;;;-141.48;100.00;69781.59;5231969;28;20020;-80
2022/10/05 00:29:57;;;;;;;8.68;7.80;;;;;;;-141.48;100.00;69781.59;5230711;28;20162;-81
2022/10/05 00:32:28;;;;;;;8.40;7.78;;;;;;;-141.48;100.00;69781.59;5230923;28;20047;-80
2022/10/05 00:34:58;;;;;;;7.38;6.78;;;;;;;-141.48;100.00;69781.59;5252022;22;20013;-66
2022/10/05 00:37:29;;;;;;;10.38;7.95;;;;;;;-141.48;100.00;69781.59;5189990;28;20037;-66
2022/10/05 00:39:59;;;;;;;8.25;7.55;;;;;;;-141.48;100.00;69781.59;5194901;28;20034;-66
2022/10/05 00:42:48;;;;;;;8.68;7.82;;;;;;;-141.48;100.00;69781.59;5169862;28;20026;-66
2022/10/05 00:45:32;;;;;;;10.00;8.68;;;;;;;-141.48;100.00;69781.59;5169237;28;20095;-66
2022/10/05 00:48:19;;;;;;;9.27;8.57;;;;;;;-141.48;100.00;69781.59;5169554;28;20132;-66
2022/10/05 00:51:04;;;;;;;8.77;8.10;;;;;;;-141.48;100.00;69781.59;5169503;28;20026;-66
2022/10/05 00:53:42;;;;;;;9.45;8.70;;;;;;;-141.48;100.00;69781.59;5169228;28;20034;-66
2022/10/05 00:56:41;;;;;;;9.23;8.52;;;;;;;-141.48;100.00;69781.59;5169703;28;20121;-66
2022/10/05 00:59:20;;;;;;;7.87;7.27;;;;;;;-141.48;100.00;69781.59;5187260;28;20025;-66
2022/10/05 01:02:14;;;;;;;8.93;8.27;;;;;;;-141.48;100.00;69781.59;5186947;28;20034;-66
2022/10/05 01:04:54;;;;;;;10.30;9.27;;;;;;;-141.48;100.00;69781.59;5168977;28;20100;-67
2022/10/05 01:07:24;;;;;;;7.80;7.18;;;;;;;-141.48;100.00;69781.59;5168398;28;20501;-65
2022/10/05 01:10:14;;;;;;;16.30;8.25;;;;;;;-141.48;100.00;69781.59;5168445;28;20049;-66
2022/10/05 01:13:06;;;;;;;8.65;7.45;;;;;;;-141.48;100.00;69781.59;5169416;28;20041;-67
2022/10/05 01:15:49;;;;;;;9.63;8.82;;;;;;;-141.48;100.00;69781.59;5168748;28;20546;-67
2022/10/05 01:18:31;;;;;;;9.98;9.15;;;;;;;-141.48;100.00;69781.59;5169199;28;20037;-68
2022/10/05 01:21:11;;;;;;;9.38;8.55;;;;;;;-141.48;100.00;69781.59;5186307;28;20052;-66
2022/10/05 01:24:07;;;;;;;7.55;6.38;;;;;;;-141.48;100.00;69781.59;5168814;28;20029;-66
2022/10/05 01:26:51;;;;;;;8.18;7.43;;;;;;;-141.48;100.00;69781.59;5168746;28;20125;-66
2022/10/05 01:29:30;;;;;;;8.80;5.53;;;;;;;-141.48;100.00;69781.59;5168305;28;20037;-66
2022/10/05 01:32:23;;;;;;;9.27;6.95;;;;;;;-141.48;100.00;69781.59;5186383;28;20025;-66
2022/10/05 01:35:21;;;;;;;7.97;7.47;;;;;;;-141.48;100.00;69781.59;5184727;28;20117;-67
2022/10/05 01:38:30;;;;;;;6.93;6.40;;;;;;;-141.48;100.00;69781.59;5168797;28;20022;-66
2022/10/05 01:41:25;;;;;;;9.07;8.37;;;;;;;-141.48;100.00;69781.59;5087771;29;20032;-66
2022/10/05 01:44:08;;;;;;;8.43;6.55;;;;;;;-141.48;100.00;69781.59;5166655;28;20277;-66
2022/10/05 01:46:50;;;;;;;7.70;7.05;;;;;;;-141.48;100.00;69781.59;5169221;28;20509;-67
2022/10/05 01:49:27;;;;;;;7.88;7.13;;;;;;;-141.48;100.00;69781.59;5186015;28;20037;-66
2022/10/05 01:52:06;;;;;;;7.80;7.20;;;;;;;-141.48;100.00;69781.59;5167953;28;20497;-66
2022/10/05 01:55:14;;;;;;;7.68;7.28;;;;;;;-141.48;100.00;69781.59;5185480;28;20112;-66
2022/10/05 01:58:06;;;;;;;8.95;8.35;;;;;;;-141.48;100.00;69781.59;5168244;28;20038;-66
2022/10/05 02:00:55;;;;;;;7.97;7.40;;;;;;;-141.48;100.00;69781.59;5168328;28;20554;-66
2022/10/05 02:03:34;;;;;;;8.32;7.75;;;;;;;-141.48;100.00;69781.59;5168122;28;20034;-66
2022/10/05 02:06:22;;;;;;;7.97;7.30;;;;;;;-141.48;100.00;69781.59;5168207;28;20033;-67
2022/10/05 02:09:08;;;;;;;8.10;7.38;;;;;;;-141.48;100.00;69781.59;5168315;28;20025;-66
2022/10/05 02:11:42;;;;;;;7.43;6.70;;;;;;;-141.48;100.00;69781.59;5186183;28;20036;-66
2022/10/05 02:14:20;;;;;;;10.73;8.80;;;;;;;-141.48;100.00;69781.59;5168172;28;20025;-66
2022/10/05 02:16:53;;;;;;;7.97;7.38;;;;;;;-141.48;100.00;69781.59;5168043;28;20026;-66
2022/10/05 02:19:36;;;;;;;7.28;6.60;;;;;;;-141.48;100.00;69781.59;5185354;28;20030;-66
2022/10/05 02:22:09;;;;;;;7.93;7.28;;;;;;;-141.48;100.00;69781.59;5185617;28;20029;-68
2022/10/05 02:24:49;;;;;;;8.43;7.75;;;;;;;-141.48;100.00;69781.59;5166727;28;20053;-66
2022/10/05 02:27:30;;;;;;;9.88;8.13;;;;;;;-141.48;100.00;69781.59;5167936;28;20017;-67
2022/10/05 02:30:05;;;;;;;8.27;7.45;;;;;;;-141.48;100.00;69781.59;5167409;28;20036;-66
2022/10/05 02:32:43;;;;;;;8.05;7.45;;;;;;;-141.48;100.00;69781.59;5185746;28;20371;-66
2022/10/05 02:35:17;;;;;;;9.40;8.48;;;;;;;-141.48;100.00;69781.59;5184947;28;20026;-66
2022/10/05 02:37:56;;;;;;;7.03;6.57;;;;;;;-141.48;100.00;69781.59;5167708;28;20527;-65
2022/10/05 02:40:38;;;;;;;8.53;7.90;;;;;;;-141.48;100.00;69781.59;5167914;28;20037;-67
2022/10/05 02:43:16;;;;;;;8.50;8.00;;;;;;;-141.48;100.00;69781.59;5167648;28;20112;-66
2022/10/05 02:46:08;;;;;;;7.50;6.85;;;;;;;-141.48;100.00;69781.59;5167940;28;20033;-66
2022/10/05 02:49:11;;;;;;;9.98;7.50;;;;;;;-141.48;100.00;69781.59;5185108;28;20064;-66
2022/10/05 02:52:08;;;;;;;10.10;6.57;;;;;;;-141.48;100.00;69781.59;5167830;28;20081;-66
2022/10/05 02:54:45;;;;;;;10.90;9.68;;;;;;;-141.48;100.00;69781.59;5167272;28;20049;-67
2022/10/05 02:57:38;;;;;;;8.27;7.68;;;;;;;-141.48;100.00;69781.59;5185299;28;20464;-66
2022/10/05 03:00:14;;;;;;;9.13;8.43;;;;;;;-141.48;100.00;69781.59;5167509;28;20032;-66
2022/10/05 03:02:51;;;;;;;9.88;9.18;;;;;;;-141.48;100.00;69781.59;5166819;28;20068;-66
2022/10/05 03:05:32;;;;;;;8.90;8.18;;;;;;;-141.48;100.00;69781.59;5167608;28;20092;-69
2022/10/05 03:08:31;;;;;;;9.65;8.80;;;;;;;-141.48;100.00;69781.59;5167719;28;20030;-67
2022/10/05 03:11:29;;;;;;;10.03;9.07;;;;;;;-141.48;100.00;69781.59;5166566;28;20049;-66
2022/10/05 03:14:02;;;;;;;10.48;9.40;;;;;;;-141.48;100.00;69781.59;5167061;28;20280;-66
2022/10/05 03:17:04;;;;;;;9.98;7.20;;;;;;;-141.48;100.00;69781.59;5167508;28;20030;-66
2022/10/05 03:19:53;;;;;;;9.48;8.80;;;;;;;-141.48;100.00;69781.59;5178320;28;20498;-67
2022/10/05 03:22:41;;;;;;;10.18;9.27;;;;;;;-141.48;100.00;69781.59;5167364;28;20034;-66
2022/10/05 03:25:41;;;;;;;9.85;9.05;;;;;;;-141.48;100.00;69781.59;5166480;28;20104;-66
2022/10/05 03:28:23;;;;;;;10.55;9.82;;;;;;;-141.48;100.00;69781.59;5163498;28;20105;-66
2022/10/05 03:31:03;;;;;;;10.73;9.82;;;;;;;-141.48;100.00;69781.59;5184821;28;20025;-66
2022/10/05 03:33:58;;;;;;;10.60;9.52;;;;;;;-141.48;100.00;69781.59;5168624;28;20026;-66
2022/10/05 03:36:43;;;;;;;9.63;8.73;;;;;;;-141.48;100.00;69781.59;5170886;28;20041;-67
2022/10/05 03:39:38;;;;;;;9.73;8.88;;;;;;;-141.48;100.00;69781.59;5173640;28;20037;-67
2022/10/05 03:42:30;;;;;;;10.85;9.77;;;;;;;-141.48;100.00;69781.59;5190979;28;20021;-66
2022/10/05 03:45:21;;;;;;;9.55;8.82;;;;;;;-141.48;100.00;69781.59;5205863;28;20160;-66
2022/10/05 03:48:15;;;;;;;9.20;8.43;;;;;;;-141.48;100.00;69781.59;5191289;28;20025;-67
2022/10/05 03:51:05;;;;;;;10.50;9.50;;;;;;;-141.48;100.00;69781.59;5190701;28;20029;-66
2022/10/05 03:53:55;;;;;;;11.77;10.77;;;;;;;-141.48;100.00;69781.59;5208132;28;20026;-67
2022/10/05 03:56:50;;;;;;;8.85;8.02;;;;;;;-141.48;100.00;69781.59;5208295;28;20021;-67
2022/10/05 03:59:26;;;;;;;9.13;8.35;;;;;;;-141.48;100.00;69781.59;5190723;28;20059;-66
2022/10/05 04:02:01;;;;;;;8.85;8.23;;;;;;;-141.48;100.00;69781.59;5190942;28;20095;-66
2022/10/05 04:05:12;;;;;;;11.40;8.52;;;;;;;-141.48;100.00;69781.59;5190064;28;20041;-66
2022/10/05 04:08:01;;;;;;;9.90;9.00;;;;;;;-141.48;100.00;69781.59;5142998;28;20048;-66
2022/10/05 04:10:40;;;;;;;10.38;9.52;;;;;;;-141.48;100.00;69781.59;5190961;28;20151;-67
2022/10/05 04:13:33;;;;;;;10.02;9.10;;;;;;;-141.48;100.00;69781.59;5190419;28;20033;-66
2022/10/05 04:16:27;;;;;;;14.30;11.05;;;;;;;-141.48;100.00;69781.59;5190547;28;20433;-66
2022/10/05 04:19:09;;;;;;;9.50;8.68;;;;;;;-141.48;100.00;69781.59;5190615;28;20473;-67
2022/10/05 04:21:48;;;;;;;9.65;7.40;;;;;;;-141.48;100.00;69781.59;5190661;28;20133;-66
2022/10/05 04:24:29;;;;;;;7.32;6.72;;;;;;;-141.48;100.00;69781.59;5207617;28;20485;-67
2022/10/05 04:27:11;;;;;;;12.73;8.23;;;;;;;-141.48;100.00;69781.59;5190418;28;20021;-66
2022/10/05 04:29:52;;;;;;;6.68;6.22;;;;;;;-141.48;100.00;69781.59;5207958;28;20091;-68
2022/10/05 04:32:35;;;;;;;8.02;7.32;;;;;;;-141.48;100.00;69781.59;5189933;28;20025;-66
2022/10/05 04:35:27;;;;;;;7.38;6.78;;;;;;;-141.48;100.00;69781.59;5189909;28;20032;-67
2022/10/05 04:38:25;;;;;;;14.27;8.38;;;;;;;-141.48;100.00;69781.59;5197068;28;20034;-66
2022/10/05 04:41:20;;;;;;;8.55;7.85;;;;;;;-141.48;100.00;69781.59;5168518;28;20041;-66
2022/10/05 04:44:12;;;;;;;8.50;7.13;;;;;;;-141.48;100.00;69781.59;5169004;28;20131;-67
2022/10/05 04:46:54;;;;;;;7.22;6.72;;;;;;;-141.48;100.00;69781.59;5167965;28;20103;-66
2022/10/05 04:49:34;;;;;;;7.78;7.05;;;;;;;-141.48;100.00;69781.59;5149038;28;20038;-67
2022/10/05 04:52:30;;;;;;;7.20;6.70;;;;;;;-141.48;100.00;69781.59;5161006;28;20041;-66
2022/10/05 04:55:20;;;;;;;7.07;6.60;;;;;;;-141.48;100.00;69781.59;5148845;28;20455;-67
2022/10/05 04:58:13;;;;;;;8.10;7.47;;;;;;;-141.48;100.00;69781.59;5148756;28;20027;-66
2022/10/05 05:00:54;;;;;;;7.57;6.07;;;;;;;-141.48;100.00;69781.59;5148805;28;20384;-66
2022/10/05 05:03:33;;;;;;;6.32;5.38;;;;;;;-141.48;100.00;69781.59;5148756;28;20038;-66
2022/10/05 05:06:19;;;;;;;5.97;5.43;;;;;;;-141.48;100.00;69781.59;5149203;28;20033;-66
2022/10/05 05:09:12;;;;;;;7.75;7.05;;;;;;;-141.48;100.00;69781.59;5166372;28;20116;-67
2022/10/05 05:12:07;;;;;;;8.25;6.65;;;;;;;-141.48;100.00;69781.59;5122946;28;20038;-67
2022/10/05 05:14:52;;;;;;;10.73;4.82;;;;;;;-141.48;100.00;69781.59;5167312;28;20030;-67
2022/10/05 05:17:32;;;;;;;6.55;6.13;;;;;;;-141.48;100.00;69781.59;5169036;28;20029;-66
2022/10/05 05:20:05;;;;;;;6.03;5.63;;;;;;;-141.48;100.00;69781.59;5168519;28;20029;-67
2022/10/05 05:23:05;;;;;;;5.57;5.07;;;;;;;-141.48;100.00;69781.59;5168544;28;20497;-66
2022/10/05 05:25:41;;;;;;;;;;;;;;;-141.48;100.00;69781.59;5169222;28;20469;-67
2022/10/05 05:28:31;;;;;;;5.05;4.43;;;;;;;-141.48;100.00;69781.59;5168538;28;19910;-68
2022/10/05 05:31:20;;;;;;;5.93;5.43;;;;;;;-141.48;100.00;69781.59;5168162;28;20064;-66
2022/10/05 05:34:13;;;;;;;5.60;4.57;;;;;;;-141.48;100.00;69781.59;5168462;28;20091;-67
2022/10/05 05:37:10;;;;;;;5.85;5.22;;;;;;;-141.48;100.00;69781.59;5185408;28;20482;-67
2022/10/05 05:39:47;;;;;;;6.10;5.75;;;;;;;-141.48;100.00;69781.59;5183593;28;20108;-67
2022/10/05 05:42:32;;;;;;;4.47;4.18;;;;;;;-141.48;100.00;69781.59;5166994;28;20102;-68
2022/10/05 05:45:16;;;;;;;9.55;4.75;;;;;;;-141.48;100.00;69781.59;5166217;28;20061;-67
2022/10/05 05:47:53;;;;;;;5.88;5.43;;;;;;;-141.48;100.00;69781.59;5168529;28;20022;-67
2022/10/05 05:51:11;;;;;;;5.32;4.93;;;;;;;-141.48;100.00;69781.59;5200807;28;20509;-66
2022/10/05 05:54:18;;;;;;;4.93;4.63;;;;;;;-141.48;100.00;69781.59;5126770;28;20491;-68
2022/10/05 05:57:09;;;;;;;5.55;5.15;;;;;;;-141.48;100.00;69781.59;5159277;28;20078;-66
2022/10/05 06:00:00;;;;;;;5.53;5.10;;;;;;;-141.48;100.00;69781.59;5166963;28;20038;-66
2022/10/05 06:03:09;;;;;;;5.30;4.90;;;;;;;-141.48;100.00;69781.59;5168384;28;20022;-66
2022/10/05 06:05:48;;;;;;;4.75;4.45;;;;;;;-141.48;100.00;69781.59;5166886;28;20084;-66
2022/10/05 06:08:33;;;;;;;4.77;4.40;;;;;;;-141.48;100.00;69781.59;5168099;28;20096;-66
2022/10/05 06:11:15;;;;;;;6.60;5.25;;;;;;;-141.48;100.00;69781.59;5185906;28;20080;-66
2022/10/05 06:13:46;;;;;;;5.43;5.05;;;;;;;-141.48;100.00;69781.59;5167710;28;20025;-65
2022/10/05 06:16:24;;;;;;;5.10;4.82;;;;;;;-141.48;100.00;69781.59;5167702;28;20496;-65
2022/10/05 06:18:58;;;;;;;8.38;5.95;;;;;;;-141.48;100.00;69781.59;5167898;28;20037;-66
2022/10/05 06:21:37;;;;;;;4.40;4.18;;;;;;;-141.48;100.00;69781.59;5167646;28;20434;-66
2022/10/05 06:24:28;;;;;;;4.80;4.50;;;;;;;-141.48;100.00;69781.59;5200710;28;20529;-66
2022/10/05 06:27:12;;;;;;;5.05;4.55;;;;;;;-141.48;100.00;69781.59;5168467;28;20490;-66
2022/10/05 06:30:04;;;;;;;6.25;5.68;;;;;;;-141.48;100.00;69781.59;5168286;28;20109;-66
2022/10/05 06:33:01;;;;;;;6.20;5.60;;;;;;;-141.48;100.00;69781.59;5185825;28;20030;-66
2022/10/05 06:36:28;;;;;;;5.75;4.60;;;;;;;-141.48;100.00;69781.59;5181579;22;20056;-67
2022/10/05 06:39:30;;;;;;;6.07;4.57;;;;;;;-141.48;100.00;69781.59;5161643;28;20107;-67
2022/10/05 06:42:20;;;;;;;5.93;4.38;;;;;;;-141.48;100.00;69781.59;5201080;28;20022;-65
2022/10/05 06:45:03;;;;;;;4.22;3.92;;;;;;;-141.48;100.00;69781.59;5200823;28;20030;-66
2022/10/05 06:47:46;;;;;;;4.50;4.05;;;;;;;-141.48;100.00;69781.59;5201287;28;20449;-66
2022/10/05 06:51:07;;;;;;;4.93;4.63;;;;;;;-141.48;100.00;69781.59;5202850;28;20022;-66
2022/10/05 06:53:53;;;;;;;4.68;4.38;;;;;;;-141.48;100.00;69781.59;5103134;29;20031;-66
2022/10/05 06:56:40;;;;;;;6.00;4.47;;;;;;;-141.48;100.00;69781.59;5103836;29;20494;-65
2022/10/05 06:59:27;;;;;;;4.57;4.28;;;;;;;-141.48;100.00;69781.59;5176269;28;20046;-65
2022/10/05 07:02:03;;;;;;;4.18;3.83;;;;;;;-141.48;100.00;69781.59;5181447;28;20033;-66
2022/10/05 07:04:48;;;;;;;3.22;2.92;;;;;;;-141.48;100.00;69781.59;5181811;28;20061;-65
2022/10/05 07:07:57;;;;;;;5.40;4.95;;;;;;;-141.48;100.00;69781.59;5181868;28;20136;-66
2022/10/05 07:10:33;;;;;;;4.70;4.40;;;;;;;-141.48;100.00;69781.59;5157482;28;20080;-66
2022/10/05 07:13:56;;;;;;;5.18;4.82;;;;;;;-141.48;100.00;69781.59;5186045;28;20033;-66
2022/10/05 07:16:29;;;;;;;4.57;4.18;;;;;;;-141.48;100.00;69781.59;5143382;28;20113;-66
2022/10/05 07:19:22;;;;;;;5.78;5.38;;;;;;;-141.48;100.00;69781.59;5187550;28;20409;-66
2022/10/05 07:22:23;;;;;;;3.15;2.95;;;;;;;-141.48;100.00;69781.59;5186040;28;20036;-66
2022/10/05 07:25:18;;;;;;;4.15;3.95;;;;;;;-141.48;100.00;69781.59;5185442;28;20069;-67
2022/10/05 07:28:25;;;;;;;4.00;3.75;;;;;;;-141.48;100.00;69781.59;5186447;28;20093;-66
2022/10/05 07:31:06;;;;;;;4.45;4.20;;;;;;;-141.48;100.00;69781.59;5184905;28;20506;-65
2022/10/05 07:33:45;;;;;;;4.65;4.30;;;;;;;-141.48;100.00;69781.59;5184321;28;20026;-66
2022/10/05 07:39:39;;;;;;;5.10;3.53;;;;;;;-141.48;100.00;69781.59;5185840;28;20041;-65
2022/10/05 07:43:08;;;;;;;4.07;3.40;;;;;;;-141.48;100.00;69781.59;5185054;28;20040;-65
2022/10/05 07:45:45;;;;;;;7.87;3.43;;;;;;;-141.48;100.00;69781.59;5125533;28;20038;-65
2022/10/05 07:48:43;;;;;;;10.30;4.38;;;;;;;-141.48;100.00;69781.59;5183698;28;20042;-65
2022/10/05 07:51:35;;;;;;;6.00;2.53;;;;;;;-141.48;100.00;69781.59;5184045;28;20080;-65
2022/10/05 07:54:23;;;;;;;3.92;3.72;;;;;;;-141.48;100.00;69781.59;5183120;28;20503;-64
2022/10/05 07:57:13;;;;;;;3.83;3.63;;;;;;;-141.48;100.00;69781.59;5183690;28;20038;-65
2022/10/05 07:59:53;;;;;;;3.20;3.00;;;;;;;-141.48;100.00;69781.59;5185320;28;20454;-66
2022/10/05 08:02:43;;;;;;;3.75;3.55;;;;;;;-141.48;100.00;69781.59;5184568;28;20351;-64
2022/10/05 08:05:20;;;;;;;4.57;3.05;;;;;;;-141.48;100.00;69781.59;5182759;28;20037;-66
2022/10/05 08:08:03;;;;;;;3.20;3.00;;;;;;;-141.48;100.00;69781.59;5183361;28;20026;-65
2022/10/05 08:10:43;;;;;;;3.05;2.85;;;;;;;-141.48;100.00;69781.59;5182830;28;20377;-66
2022/10/05 08:13:53;;;;;;;5.15;3.10;;;;;;;-141.48;100.00;69781.59;5181807;28;20029;-65
2022/10/05 08:16:29;;;;;;;3.05;2.95;;;;;;;-141.48;100.00;69781.59;5184754;28;20478;-65
2022/10/05 08:19:43;;;;;;;3.50;3.30;;;;;;;-141.48;100.00;69781.59;5182562;28;20156;-65
2022/10/05 08:22:27;;;;;;;3.58;3.33;;;;;;;-141.48;100.00;69781.59;5105451;29;20117;-66
2022/10/05 08:25:02;;;;;;;3.35;3.15;;;;;;;-141.48;100.00;69781.59;5105732;29;20066;-67
2022/10/05 08:27:42;;;;;;;3.45;3.22;;;;;;;-141.48;100.00;69781.59;5157848;28;20038;-65
2022/10/05 08:30:15;;;;;;;4.57;3.85;;;;;;;-141.48;100.00;69781.59;5182400;28;20021;-65
2022/10/05 08:32:52;;;;;;;3.72;3.53;;;;;;;-141.48;100.00;69781.59;5183000;28;20026;-64
2022/10/05 08:35:32;;;;;;;3.15;2.85;;;;;;;-141.48;100.00;69781.59;5182015;28;20037;-65
2022/10/05 08:38:15;;;;;;;3.63;2.75;;;;;;;-141.48;100.00;69781.59;5182508;28;20045;-65
2022/10/05 08:40:45;;;;;;;3.75;3.55;;;;;;;-141.48;100.00;69781.59;5179822;28;20091;-65
2022/10/05 08:43:25;;;;;;;4.18;3.78;;;;;;;-141.48;100.00;69781.59;5182442;28;20101;-65
2022/10/05 08:46:20;;;;;;;3.55;3.25;;;;;;;-141.48;100.00;69781.59;5182813;28;20486;-65
2022/10/05 08:49:09;;;;;;;14.88;3.25;;;;;;;-141.48;100.00;69781.59;5182588;28;20041;-65
2022/10/05 08:52:00;;;;;;;4.10;3.00;;;;;;;-141.48;100.00;69781.59;5182937;28;20125;-67
2022/10/05 08:54:59;;;;;;;3.25;3.05;;;;;;;-141.48;100.00;69781.59;5182215;28;20120;-64
2022/10/05 08:57:45;;;;;;;4.95;3.33;;;;;;;-141.48;100.00;69781.59;5182509;28;20021;-65
2022/10/05 09:00:24;;;;;;;3.28;3.15;;;;;;;-141.48;100.00;69781.59;5182684;28;20131;-65
2022/10/05 09:02:57;;;;;;;3.73;3.53;;;;;;;-141.48;100.00;69781.59;5182322;28;20022;-66
2022/10/05 09:05:47;;;;;;;3.38;3.17;;;;;;;-141.48;100.00;69781.59;5181853;28;20033;-65
2022/10/05 09:08:59;;;;;;;4.68;2.72;;;;;;;-141.48;100.00;69781.59;5182316;28;20025;-65
2022/10/05 09:11:56;;;;;;;2.90;2.70;;;;;;;-141.48;100.00;69781.59;5181525;28;20037;-65
2022/10/05 09:14:38;;;;;;;7.60;3.83;;;;;;;-141.48;100.00;69781.59;5181852;28;20029;-65
2022/10/05 09:17:33;;;;;;;3.25;3.05;;;;;;;-141.48;100.00;69781.59;5181859;28;20026;-65
2022/10/05 09:20:09;;;;;;;2.83;2.72;;;;;;;-141.48;100.00;69781.59;5182030;28;20120;-65
2022/10/05 09:23:10;;;;;;;3.15;2.88;;;;;;;-141.48;100.00;69781.59;5182166;28;20512;-64
2022/10/05 09:25:57;;;;;;;15.00;3.97;;;;;;;-141.48;100.00;69781.59;5181672;28;20036;-64
2022/10/05 09:28:45;;;;;;;4.43;2.17;;;;;;;-141.48;100.00;69781.59;5184293;28;20124;-65
2022/10/05 09:31:18;;;;;;;2.85;2.75;;;;;;;-141.48;100.00;69781.59;5160307;28;20402;-64
2022/10/05 09:33:58;;;;;;;5.15;2.70;;;;;;;-141.48;100.00;69781.59;5160827;28;20117;-64
2022/10/05 09:36:47;;;;;;;2.72;2.50;;;;;;;-141.48;100.00;69781.59;5161750;28;20037;-66
2022/10/05 09:39:17;;;;;;;7.78;2.40;;;;;;;-141.48;100.00;69781.59;5161729;28;20035;-65
2022/10/05 09:42:23;;;;;;;3.35;3.08;;;;;;;-141.48;100.00;69781.59;5161385;28;20107;-64
2022/10/05 09:45:34;;;;;;;3.17;3.08;;;;;;;-141.48;100.00;69781.59;5161013;28;20050;-65
2022/10/05 09:48:26;;;;;;;5.55;3.00;;;;;;;-141.48;100.00;69781.59;5163171;28;20026;-63
2022/10/05 09:51:28;;;;;;;2.30;2.20;;;;;;;-141.48;100.00;69781.59;5161773;28;20084;-64
2022/10/05 09:54:42;;;;;;;6.25;2.58;;;;;;;-141.48;100.00;69781.59;5160694;28;20026;-63
2022/10/05 09:57:28;;;;;;;2.20;2.10;;;;;;;-141.48;100.00;69781.59;5161272;28;20025;-64
2022/10/05 10:00:07;;;;;;;6.28;4.20;;;;;;;-141.48;100.00;69781.59;5162878;28;20034;-64
2022/10/05 10:03:01;;;;;;;2.90;2.70;;;;;;;-141.48;100.00;69781.59;5161420;28;20030;-65
2022/10/05 10:05:50;;;;;;;6.05;2.30;;;;;;;-141.48;100.00;69781.59;5167772;28;20040;-65
2022/10/05 10:08:20;;;;;;;5.30;3.42;;;;;;;-141.48;100.00;69781.59;5200767;28;20040;-64
2022/10/05 10:11:16;;;;;;;2.97;2.35;;;;;;;-141.48;100.00;69781.59;5201272;28;20454;-64
2022/10/05 10:14:04;;;;;;;3.50;3.20;;;;;;;-141.48;100.00;69781.59;5201215;28;20022;-65
2022/10/05 10:17:09;;;;;;;2.33;2.23;;;;;;;-141.48;100.00;69781.59;5200862;28;20513;-65
2022/10/05 10:19:58;;;;;;;3.47;3.28;;;;;;;-141.48;100.00;69781.59;5201201;28;20104;-64
2022/10/05 10:22:48;;;;;;;6.13;2.80;;;;;;;-141.48;100.00;69781.59;5200993;28;20129;-65
2022/10/05 10:25:53;;;;;;;3.45;3.20;;;;;;;-141.48;100.00;69781.59;5200613;28;20045;-65
2022/10/05 10:28:42;;;;;;;3.10;2.78;;;;;;;-141.48;100.00;69781.59;5187639;28;20033;-64
2022/10/05 10:31:44;;;;;;;4.25;2.75;;;;;;;-141.48;100.00;69781.59;5201146;28;20033;-65
2022/10/05 10:35:00;;;;;;;2.92;2.80;;;;;;;-141.48;100.00;69781.59;5203164;28;20021;-65
2022/10/05 10:38:07;;;;;;;3.03;2.92;;;;;;;-141.48;100.00;69781.59;5200817;28;20174;-63
2022/10/05 10:40:58;;;;;;;2.70;2.58;;;;;;;-141.48;100.00;69781.59;5202705;28;20313;-63
2022/10/05 10:43:35;;;;;;;3.47;3.30;;;;;;;-141.48;100.00;69781.59;5203503;28;20028;-65
2022/10/05 10:46:45;;;;;;;6.43;2.28;;;;;;;-141.48;100.00;69781.59;5205816;28;20112;-64
2022/10/05 10:49:46;;;;;;;2.45;2.25;;;;;;;-141.48;100.00;69781.59;5190433;28;20037;-64
2022/10/05 10:52:54;;;;;;;3.15;2.53;;;;;;;-141.48;100.00;69781.59;5205587;28;20124;-65
2022/10/05 10:55:36;;;;;;;4.80;1.90;;;;;;;-141.48;100.00;69781.59;5200559;28;20036;-64
2022/10/05 10:58:28;;;;;;;2.65;2.55;;;;;;;-141.48;100.00;69781.59;5186297;28;20113;-65
2022/10/05 11:01:11;;;;;;;2.72;2.63;;;;;;;-141.48;100.00;69781.59;5184339;28;20057;-66
2022/10/05 11:04:10;;;;;;;3.35;2.45;;;;;;;-141.48;100.00;69781.59;5183231;28;20029;-65
2022/10/05 11:07:08;;;;;;;3.38;3.08;;;;;;;-141.48;100.00;69781.59;5185315;28;20022;-66
2022/10/05 11:09:57;;;;;;;2.63;2.53;;;;;;;-141.48;100.00;69781.59;5186758;28;20034;-64
2022/10/05 11:12:49;;;;;;;4.70;3.05;;;;;;;-141.48;100.00;69781.59;5184611;28;20033;-64
2022/10/05 11:15:47;;;;;;;3.38;2.80;;;;;;;-141.48;100.00;69781.59;5184096;28;20482;-64
2022/10/05 11:18:42;;;;;;;2.70;2.50;;;;;;;-141.48;100.00;69781.59;5184459;28;20030;-65
2022/10/05 11:21:16;;;;;;;3.03;2.83;;;;;;;-141.48;100.00;69781.59;5184399;28;20022;-65
2022/10/05 11:24:02;;;;;;;5.45;2.53;;;;;;;-141.48;100.00;69781.59;5183992;28;20033;-65
2022/10/05 11:27:02;;;;;;;2.95;2.75;;;;;;;-141.48;100.00;69781.59;5184950;28;20402;-66
2022/10/05 11:29:51;;;;;;;3.25;3.05;;;;;;;-141.48;100.00;69781.59;5184756;28;20042;-65
2022/10/05 11:32:46;;;;;;;5.22;2.97;;;;;;;-141.48;100.00;69781.59;5184766;28;20506;-65
2022/10/05 11:35:40;;;;;;;4.20;3.50;;;;;;;-141.48;100.00;69781.59;5185111;28;20040;-64
2022/10/05 11:38:47;;;;;;;3.15;2.95;;;;;;;-141.48;100.00;69781.59;5183966;28;20406;-64
2022/10/05 11:41:35;;;;;;;6.97;4.28;;;;;;;-141.48;100.00;69781.59;5171124;28;20073;-64
2022/10/05 11:44:38;;;;;;;7.63;3.93;;;;;;;-141.48;100.00;69781.59;5182534;28;20371;-65
2022/10/05 11:47:21;;;;;;;8.50;4.30;;;;;;;-141.48;100.00;69781.59;5184582;28;20398;-66
2022/10/05 11:50:29;;;;;;;6.40;3.55;;;;;;;-141.48;100.00;69781.59;5186376;28;20040;-65
2022/10/05 11:53:03;;;;;;;9.02;4.35;;;;;;;-141.48;100.00;69781.59;5183776;28;20032;-65
2022/10/05 11:56:17;;;;;;;2.03;2.03;;;;;;;-141.48;100.00;69781.59;5182742;28;20026;-64
2022/10/05 11:58:50;;;;;;;3.30;3.08;;;;;;;-141.48;100.00;69781.59;5183095;28;20447;-65
2022/10/05 12:01:27;;;;;;;2.90;2.67;;;;;;;-141.48;100.00;69781.59;5185170;28;20069;-65
2022/10/05 12:04:16;;;;;;;2.30;2.20;;;;;;;-141.48;100.00;69781.59;5182937;28;20054;-65
2022/10/05 12:07:35;;;;;;;3.35;3.05;;;;;;;-141.48;100.00;69781.59;5184251;28;20026;-64
2022/10/05 12:10:16;;;;;;;3.28;2.30;;;;;;;-141.48;100.00;69781.59;5107045;29;20062;-67
2022/10/05 12:13:01;;;;;;;4.03;3.40;;;;;;;-141.48;100.00;69781.59;5106429;29;20410;-64
2022/10/05 12:15:55;;;;;;;8.60;2.28;;;;;;;-141.48;100.00;69781.59;5166373;28;20086;-65
2022/10/05 12:18:29;;;;;;;2.72;2.63;;;;;;;-141.48;100.00;69781.59;5196668;28;20183;-66
2022/10/05 12:21:14;;;;;;;2.60;2.50;;;;;;;-141.48;100.00;69781.59;5195373;28;20047;-65
2022/10/05 12:24:11;;;;;;;2.75;2.60;;;;;;;-141.48;100.00;69781.59;5187437;28;20441;-65
2022/10/05 12:26:57;;;;;;;2.17;2.08;;;;;;;-141.48;100.00;69781.59;5195605;28;20070;-65
2022/10/05 12:30:07;;;;;;;3.60;3.35;;;;;;;-141.48;100.00;69781.59;5199444;28;20025;-65
2022/10/05 12:33:00;;;;;;;;;;;;;;;-141.48;100.00;69781.59;5181033;28;20493;-66
2022/10/05 12:35:40;;;;;;;14.05;2.60;;;;;;;-141.48;100.00;69781.59;5176374;28;19961;-65
2022/10/05 12:38:27;;;;;;;5.20;3.95;;;;;;;-141.48;100.00;69781.59;5174341;28;20500;-65
2022/10/05 12:41:20;;;;;;;2.83;2.58;;;;;;;-141.48;100.00;69781.59;5203234;28;20109;-65
2022/10/05 12:44:11;;;;;;;8.38;3.00;;;;;;;-141.48;100.00;69781.59;5200174;28;20068;-66
2022/10/05 12:46:56;;;;;;;2.40;2.25;;;;;;;-141.48;100.00;69781.59;5193189;28;20087;-64